PAGINA EN CONSTRUCCIÓN

DISCULPEN POSIBLES FALLOS



Daganzo more information Daganzo


Meteosat more information blitzortung!


Radar lluvias  rain snow radar


Visita nuestra red de sitios de meteo:

Documentation for the template used

MeteoibericaRed estaciones Meteorologicas



Sin Advertencias climatologicas .En este momento tenemos Nivel Verde.    No hay Alarmas

Pagina Historial Weather Underground texto

Diario Resumen Noviembre 16, 2018 Unidades:  Métrico    impérial   Tanto
« Anterior Dia
Siguiente Dia »
Diario Semana Mensual Anual Personalizada
  Actual: Alto: Baja: Media:
Temperatura: -11.3 °C -17.8 °C -11.3 °C -11.1 °C
Punto de rocío: -12.3 °C -17.8 °C -12.3 °C -12.1 °C
Humedad: 89 % Humidity % 89 % 88 %
Velocidad del Viento: 14 km/h 0 km/h 9 km/h 15.8 km/h
Ráfagas de viento: 5.6 km/h 0 km/h - -
Viento:North - - NE
Pression baro: 34469.5 hPa 0 hPa 34455.9 hPa -
Précipitaciones: 0 mm      
Historical Graphs
 
 
Datos de tabla para Noviembre 16, 2018
Tiempo Temperatura Punto de rocío Pression baro Viento Velocidad del Viento Ráfagas de viento Humedad Las precipitaciones Rate ( Hora )
-17.8 °C -17.8 °C 0 hPa Calm     Humidity % 0 mm
00:00 -10.7 °C -11.7 °C 34500 hPa North 15 km/h 8 km/h 89 % 0 mm
00:05 -10.7 °C -11.6 °C 34496.6 hPa North 11.9 km/h 9.8 km/h 89 % 0 mm
00:10 -10.7 °C -11.7 °C 34489.8 hPa North 11.9 km/h 9.8 km/h 89 % 0 mm
00:15 -10.7 °C -11.7 °C 34500 hPa North 15 km/h 11.6 km/h 89 % 0 mm
00:20 -10.7 °C -11.7 °C 34496.6 hPa North 17.9 km/h 11.6 km/h 89 % 0 mm
00:25 -10.7 °C -11.7 °C 34496.6 hPa North 20.9 km/h 11.6 km/h 89 % 0 mm
00:30 -10.7 °C -11.7 °C 34496.6 hPa North 20.9 km/h 15.6 km/h 89 % 0 mm
00:35 -10.7 °C -11.7 °C 34493.2 hPa North 17.9 km/h 14 km/h 89 % 0 mm
00:40 -10.7 °C -11.7 °C 34496.6 hPa North 20.9 km/h 14 km/h 89 % 0 mm
00:45 -10.7 °C -11.7 °C 34493.2 hPa North 15 km/h 8 km/h 89 % 0 mm
00:50 -10.8 °C -11.8 °C 34493.2 hPa North 15 km/h 9.8 km/h 89 % 0 mm
00:55 -10.8 °C -11.8 °C 34496.6 hPa North 11.9 km/h 5.6 km/h 89 % 0 mm
01:00 -10.7 °C -11.7 °C 34496.6 hPa North 9.8 km/h 4.2 km/h 89 % 0 mm
01:05 -10.7 °C -11.7 °C 34500 hPa NW 9 km/h 4.2 km/h 89 % 0 mm
01:10 -10.7 °C -11.7 °C 34493.2 hPa North 14 km/h 8 km/h 89 % 0 mm
01:15 -10.8 °C -11.8 °C 34489.8 hPa North 15 km/h 9.8 km/h 89 % 0 mm
01:20 -10.8 °C -11.8 °C 34493.2 hPa North 15 km/h 8 km/h 89 % 0 mm
01:25 -10.8 °C -11.8 °C 34486.4 hPa North 15 km/h 9.8 km/h 89 % 0 mm
01:30 -10.8 °C -11.8 °C 34489.8 hPa North 15 km/h 11.6 km/h 89 % 0 mm
01:35 -10.9 °C -11.9 °C 34486.4 hPa North 21.6 km/h 15.6 km/h 89 % 0 mm
01:40 -10.9 °C -11.9 °C 34486.4 hPa North 20.9 km/h 11.6 km/h 89 % 0 mm
01:45 -10.9 °C -11.9 °C 34486.4 hPa North 20.9 km/h 11.6 km/h 89 % 0 mm
01:50 -10.9 °C -11.9 °C 34489.8 hPa North 17.9 km/h 14 km/h 89 % 0 mm
01:55 -10.9 °C -11.9 °C 34489.8 hPa North 15 km/h 8 km/h 89 % 0 mm
02:00 -10.9 °C -11.9 °C 34489.8 hPa North 9 km/h   89 % 0 mm
02:05 -10.9 °C -11.9 °C 34483 hPa North 15 km/h 5.6 km/h 89 % 0 mm
02:10 -10.8 °C -11.8 °C 34483 hPa West 20.9 km/h 11.6 km/h 89 % 0 mm
02:15 -10.8 °C -11.8 °C 34483 hPa North 23.8 km/h 11.6 km/h 89 % 0 mm
02:20 -10.8 °C -11.8 °C 34483 hPa North 19.6 km/h 11.6 km/h 89 % 0 mm
02:25 -10.9 °C -11.9 °C 34486.4 hPa WNW 25.4 km/h 15.6 km/h 89 % 0 mm
02:30 -10.9 °C -11.9 °C 34483 hPa SSW 23.8 km/h 11.6 km/h 89 % 0 mm
02:35 -10.9 °C -11.9 °C 34483 hPa West 26.9 km/h 11.6 km/h 89 % 0 mm
02:40 -10.9 °C -11.9 °C 34486.4 hPa North 15 km/h 8 km/h 89 % 0 mm
02:45 -10.9 °C -11.9 °C 34479.6 hPa North 20.9 km/h 5.6 km/h 89 % 0 mm
02:50 -10.9 °C -11.9 °C 34483 hPa North 17.9 km/h 8 km/h 89 % 0 mm
02:55 -11 °C -12 °C 34483 hPa North 15 km/h 8 km/h 89 % 0 mm
03:00 -11 °C -12 °C 34476.3 hPa North 15.6 km/h 8 km/h 89 % 0 mm
03:05 -11 °C -12 °C 34483 hPa North 15 km/h 8 km/h 89 % 0 mm
03:10 -11 °C -12 °C 34486.4 hPa North 15.6 km/h 9.8 km/h 89 % 0 mm
03:15 -10.9 °C -11.9 °C 34479.6 hPa North 15 km/h 4.2 km/h 89 % 0 mm
03:20 -11 °C -12 °C 34486.4 hPa North 17.9 km/h 8 km/h 89 % 0 mm
03:25 -11 °C -12 °C 34483 hPa North 15 km/h 8 km/h 89 % 0 mm
03:30 -11.1 °C -12.1 °C 34479.6 hPa West 15.6 km/h 9.8 km/h 89 % 0 mm
03:35 -11.1 °C -12.1 °C 34476.3 hPa North 15 km/h 5.6 km/h 89 % 0 mm
03:40 -11.1 °C -12.1 °C 34472.9 hPa NW 11.9 km/h 5.6 km/h 89 % 0 mm
03:45 -11.1 °C -12.1 °C 34472.9 hPa East 19.6 km/h 11.6 km/h 89 % 0 mm
03:50 -11.1 °C -12.1 °C 34476.3 hPa West 15.6 km/h 8 km/h 89 % 0 mm
03:55 -11.1 °C -12.1 °C 34466.1 hPa North 11.9 km/h 5.6 km/h 89 % 0 mm
04:00 -11.2 °C -12.1 °C 34469.5 hPa North 15 km/h 5.6 km/h 89 % 0 mm
04:05 -11.2 °C -12.1 °C 34466.1 hPa North 20.9 km/h 8 km/h 89 % 0 mm
04:10 -11.2 °C -12.1 °C 34472.9 hPa North 15.6 km/h 11.6 km/h 89 % 0 mm
04:15 -11.2 °C -12.1 °C 34466.1 hPa North 17.9 km/h 9.8 km/h 89 % 0 mm
04:20 -11.2 °C -12.2 °C 34466.1 hPa East 17.9 km/h 14 km/h 89 % 0 mm
04:25 -11.2 °C -12.2 °C 34466.1 hPa North 17.9 km/h 11.6 km/h 89 % 0 mm
04:30 -11.2 °C -12.2 °C 34466.1 hPa North 17.9 km/h 5.6 km/h 89 % 0 mm
04:35 -11.2 °C -12.2 °C 34462.7 hPa East 17.9 km/h 9.8 km/h 89 % 0 mm
04:40 -11.2 °C -12.2 °C 34462.7 hPa North 11.9 km/h 5.6 km/h 89 % 0 mm
04:45 -11.2 °C -12.2 °C 34466.1 hPa North 15 km/h 4.2 km/h 89 % 0 mm
04:50 -11.2 °C -12.2 °C 34466.1 hPa North 9 km/h 4.2 km/h 89 % 0 mm
04:55 -11.3 °C -12.3 °C 34466.1 hPa North 11.6 km/h 5.6 km/h 89 % 0 mm
05:00 -11.2 °C -12.2 °C 34462.7 hPa North 11.6 km/h 5.6 km/h 89 % 0 mm
05:05 -11.2 °C -12.2 °C 34466.1 hPa North 14 km/h 8 km/h 89 % 0 mm
05:10 -11.2 °C -12.1 °C 34462.7 hPa North 17.9 km/h 9.8 km/h 89 % 0 mm
05:15 -11.2 °C -12.1 °C 34466.1 hPa East 17.9 km/h 11.6 km/h 89 % 0 mm
05:20 -11.2 °C -12.1 °C 34466.1 hPa East 21.6 km/h 14 km/h 89 % 0 mm
05:25 -11.2 °C -12.1 °C 34462.7 hPa West 15 km/h 8 km/h 89 % 0 mm
05:30 -11.2 °C -12.1 °C 34466.1 hPa North 11.9 km/h 5.6 km/h 89 % 0 mm
05:35 -11.2 °C -12.1 °C 34455.9 hPa North 14 km/h 8 km/h 89 % 0 mm
05:40 -11.2 °C -12.2 °C 34462.7 hPa North 11.9 km/h 8 km/h 89 % 0 mm
05:45 -11.2 °C -12.2 °C 34462.7 hPa North 11.6 km/h 8 km/h 89 % 0 mm
05:50 -11.2 °C -12.2 °C 34462.7 hPa North 11.9 km/h 5.6 km/h 89 % 0 mm
05:55 -11.3 °C -12.3 °C 34459.3 hPa North 15 km/h 5.6 km/h 89 % 0 mm
06:00 -11.3 °C -12.3 °C 34466.1 hPa North 11.9 km/h 4.2 km/h 89 % 0 mm
06:05 -11.3 °C -12.3 °C 34469.5 hPa North 14 km/h 5.6 km/h 89 % 0 mm
meteodaganzo
Elogios de Weather Underground - 1.75 mb

Guión original por  Jim McMurry - jmcmurry@mwt.net Adaptado para la plantilla por  Wim van der Kuil - Leuven-Template.eu

Usted encontrará nuestra información del tiempo también en:

WeatherCloud

Weather Underground

Iberian Peninsula Weather Network

AWEKAS

Citizen Weather Observer Program (CWOP)